D/T METAR WX W/SPE G/SPE TEMP DEWP FEEL
31/01/23 13:20 EGYM 311320Z 28022KT 9999 FEW040 FEW042 10/01 Q1021 NOSIG RMK BLU BLU 25.3mph 10°C 1°C 8.1°C
31/01/23 12:20 EGYM 311220Z 28016KT 9999 FEW035 SCT041 10/03 Q1020 NOSIG RMK BLU BLU 18.4mph 10°C 3°C 8.7°C
31/01/23 06:50 EGYM 310650Z 23014KT CAVOK 05/03 Q1021 RMK BLU 16.1mph 5°C 3°C 3.7°C
31/01/23 05:50 EGYM 310550Z 23012KT CAVOK 04/02 Q1021 RMK BLU 13.8mph 4°C 2°C 2.4°C
30/01/23 12:50 EGYM 301250Z 29016KT 9999 FEW025 09/02 Q1023 NOSIG RMK BLU BLU 18.4mph 9°C 2°C 7.4°C
30/01/23 11:50 EGYM 301150Z 28015KT 9999 FEW015 08/03 Q1023 NOSIG RMK BLU BLU 17.3mph 8°C 3°C 6.7°C
30/01/23 10:50 EGYM 301050Z 28016KT CAVOK 07/02 Q1022 RMK BLU 18.4mph 7°C 2°C 5.4°C
30/01/23 07:50 EGYM 300750Z 26011KT 9999 FEW040 04/01 Q1020 RMK BLU 12.7mph 4°C 1°C 2.1°C
30/01/23 06:50 EGYM 300650Z 27012KT 9999 SCT040 05/01 Q1020 RMK BLU 13.8mph 5°C 1°C 3.1°C
09/01/23 05:50 EGYM 090550Z 24009KT CAVOK 04/03 Q0992 RMK BLU 10.4mph 4°C 3°C 2.7°C
09/01/23 04:50 EGYM 090450Z 24009KT 9999 FEW040 BKN200 04/03 Q0991 10.4mph 4°C 3°C 2.7°C
09/01/23 03:50 EGYM 090350Z 25009KT 9999 SCT035 03/02 Q0990 10.4mph 3°C 2°C 1.4°C
09/01/23 02:50 EGYM 090250Z 21006KT 9999 BKN035 04/03 Q0989 6.9mph 4°C 3°C 2.7°C
09/01/23 02:20 EGYM 090220Z AUTO 21006KT 9999 OVC038/// 04/03 Q0989 6.9mph 4°C 3°C 2.7°C
09/01/23 01:20 EGYM 090120Z AUTO 15006KT 9999 OVC038/// 04/03 Q0988 6.9mph 4°C 3°C 2.7°C
09/01/23 00:50 EGYM 090050Z AUTO 16006KT 9999 OVC030/// 04/03 Q0988 6.9mph 4°C 3°C 2.7°C
09/01/23 00:20 EGYM 090020Z AUTO 16004KT 9999 OVC024/// 04/03 Q0988 4.6mph 4°C 3°C 2.7°C
08/01/23 23:50 EGYM 082350Z AUTO 16005KT 9999 BKN029/// SCT170/// 04/03 Q0988 5.8mph 4°C 3°C 2.7°C
08/01/23 22:50 EGYM 082250Z AUTO 18008KT 9999 SCT120/// 04/03 Q0988 9.2mph 4°C 3°C 2.7°C
08/01/23 21:50 EGYM 082150Z AUTO 21009KT 9999 NCD 03/02 Q0988 10.4mph 3°C 2°C 1.4°C
08/01/23 18:50 EGYM 081850Z 21017KT 6000 RA BKN010 OVC020 06/05 Q0987 RMK GRN RA 19.6mph 6°C 5°C 5.3°C
08/01/23 17:50 EGYM 081750Z AUTO 20012KT 9999 OVC032/// 07/05 Q0987 13.8mph 7°C 5°C 6.3°C
08/01/23 17:20 EGYM 081720Z AUTO 20011KT 9999 OVC022/// 07/05 Q0987 12.7mph 7°C 5°C 6.3°C
08/01/23 16:50 EGYM 081650Z AUTO 19011KT 9999 BKN027/// OVC096/// 07/04 Q0987 12.7mph 7°C 4°C 6.0°C
08/01/23 16:20 EGYM 081620Z AUTO 19014KT 9999 FEW088/// BKN100/// 07/04 Q0987 16.1mph 7°C 4°C 6.0°C
08/01/23 15:50 EGYM 081550Z AUTO 18013KT 9999 // OVC098/// 07/05 Q0987 15.0mph 7°C 5°C 6.3°C
08/01/23 15:20 EGYM 081520Z AUTO 18017KT 9999 // FEW062/// 07/05 Q0988 19.6mph 7°C 5°C 6.3°C
08/01/23 14:20 EGYM 081420Z AUTO 18018KT 9999 // OVC091/// 08/05 Q0988 20.7mph 8°C 5°C 7.3°C
08/01/23 13:50 EGYM 081350Z AUTO 18019KT 9999 // SCT130/// 08/05 Q0989 21.9mph 8°C 5°C 7.3°C
08/01/23 12:50 EGYM 081250Z 18018KT 9999 VCSH FEW020 BKN090 08/05 Q0990 TEMPO 6000 SHRA SCT020 RMK BLU TEMPO WHT VCSH 20.7mph 8°C 5°C 7.3°C
08/01/23 12:34 EGYM 081234Z 19020KT 7000 RA FEW020 SCT050 BKN090 08/05 Q0990 TEMPO 9999 RMK WHT TEMPO BLU RA 23.0mph 8°C 5°C 7.3°C
08/01/23 11:50 EGYM 081150Z 18018KT 9999 FEW020 SCT100 09/06 Q0991 TEMPO 6000 SHRA SCT020 RMK BLU TEMPO WHT 20.7mph 9°C 6°C 8.6°C
08/01/23 11:20 EGYM 081120Z 18014KT 9999 FEW040 SCT080 09/05 Q0991 NOSIG RMK BLU BLU 16.1mph 9°C 5°C 8.3°C
08/01/23 10:50 EGYM 081050Z 19014KT CAVOK 08/05 Q0992 NOSIG RMK BLU BLU 16.1mph 8°C 5°C 7.3°C
08/01/23 10:20 EGYM 081020Z AUTO 19015KT 9999 NCD 08/05 Q0992 17.3mph 8°C 5°C 7.3°C
08/01/23 09:50 EGYM 080950Z 19014KT CAVOK 07/04 Q0992 NOSIG RMK BLU BLU 16.1mph 7°C 4°C 6.0°C
08/01/23 09:20 EGYM 080920Z AUTO 19015KT 9999 FEW044/// 07/04 Q0993 17.3mph 7°C 4°C 6.0°C
08/01/23 08:50 EGYM 080850Z 19012KT CAVOK 06/04 Q0993 RMK BLU 13.8mph 6°C 4°C 5.0°C
08/01/23 08:20 EGYM 080820Z AUTO 19012KT 9999 SCT027/// BKN067/// 07/04 Q0993 13.8mph 7°C 4°C 6.0°C
08/01/23 07:50 EGYM 080750Z AUTO 18012KT 9999 FEW039/// BKN110/// 06/04 Q0993 13.8mph 6°C 4°C 5.0°C
08/01/23 07:20 EGYM 080720Z AUTO 18012KT 9999 FEW076/// SCT099/// 07/04 Q0993 13.8mph 7°C 4°C 6.0°C
08/01/23 06:50 EGYM 080650Z AUTO 19014KT 9999 NCD 07/04 Q0993 16.1mph 7°C 4°C 6.0°C
08/01/23 06:20 EGYM 080620Z AUTO 20016KT 9999 NCD 07/04 Q0993 18.4mph 7°C 4°C 6.0°C
08/01/23 05:50 EGYM 080550Z AUTO 20014KT 9999 NCD 07/04 Q0993 16.1mph 7°C 4°C 6.0°C
08/01/23 05:20 EGYM 080520Z AUTO 20016KT 9999 FEW180/// 07/05 Q0993 18.4mph 7°C 5°C 6.3°C
08/01/23 04:50 EGYM 080450Z AUTO 19015KT 9999 FEW034/// 07/05 Q0993 17.3mph 7°C 5°C 6.3°C
08/01/23 04:20 EGYM 080420Z AUTO 19016KT 9999 BKN150/// 08/05 Q0994 18.4mph 8°C 5°C 7.3°C
08/01/23 03:50 EGYM 080350Z AUTO 19015KT 9999 FEW180/// 08/05 Q0994 17.3mph 8°C 5°C 7.3°C
08/01/23 03:20 EGYM 080320Z AUTO 18014KT 9999 BKN130/// 08/05 Q0994 16.1mph 8°C 5°C 7.3°C
08/01/23 02:50 EGYM 080250Z AUTO 18014KT 9999 OVC140/// 07/05 Q0994 16.1mph 7°C 5°C 6.3°C
08/01/23 02:20 EGYM 080220Z AUTO 19017KT 9999 BKN160/// 07/05 Q0994 19.6mph 7°C 5°C 6.3°C
08/01/23 01:50 EGYM 080150Z AUTO 18015KT 9999 FEW190/// 07/05 Q0994 17.3mph 7°C 5°C 6.3°C
08/01/23 01:20 EGYM 080120Z AUTO 19014KT 9999 NCD 07/04 Q0994 16.1mph 7°C 4°C 6.0°C
08/01/23 00:20 EGYM 080020Z AUTO 19016KT 9999 NCD 07/04 Q0995 18.4mph 7°C 4°C 6.0°C
07/01/23 23:50 EGYM 072350Z AUTO 19016KT 9999 NCD 06/04 Q0995 18.4mph 6°C 4°C 5.0°C
07/01/23 23:20 EGYM 072320Z AUTO 19016KT 9999 NCD 07/04 Q0995 18.4mph 7°C 4°C 6.0°C
07/01/23 22:50 EGYM 072250Z AUTO 19017KT 9999 NCD 07/04 Q0995 19.6mph 7°C 4°C 6.0°C
07/01/23 22:20 EGYM 072220Z AUTO 19015KT 9999 NCD 07/04 Q0995 17.3mph 7°C 4°C 6.0°C
07/01/23 21:50 EGYM 072150Z AUTO 20013KT 9999 NCD 07/04 Q0995 15.0mph 7°C 4°C 6.0°C
07/01/23 21:20 EGYM 072120Z AUTO 20017KT 9999 NCD 07/04 Q0995 19.6mph 7°C 4°C 6.0°C
07/01/23 20:50 EGYM 072050Z AUTO 21014KT 9999 NCD 07/04 Q0994 16.1mph 7°C 4°C 6.0°C
07/01/23 20:20 EGYM 072020Z AUTO 22016KT 9999 SCT140/// 08/04 Q0994 18.4mph 8°C 4°C 7.0°C
07/01/23 19:50 EGYM 071950Z AUTO 22015KT 9999 // FEW043/// 08/05 Q0994 17.3mph 8°C 5°C 7.3°C
07/01/23 19:20 EGYM 071920Z AUTO 22016KT 9999 // SCT043/// SCT100/// 08/05 Q0994 18.4mph 8°C 5°C 7.3°C
07/01/23 18:50 EGYM 071850Z AUTO 21020KT 9999 -RA FEW023/// BKN049/// 09/05 Q0993 -RA 23.0mph 9°C 5°C 8.3°C
07/01/23 18:20 EGYM 071820Z AUTO 19020KT 9999 // OVC033/// 11/07 Q0993 23.0mph 11°C 7°C 11.0°C
07/01/23 17:50 EGYM 071750Z AUTO 18018KT 9999 BKN018/// BKN069/// BKN110/// 10/08 Q0993 20.7mph 10°C 8°C 10.4°C
07/01/23 17:20 EGYM 071720Z AUTO 19013KT 9999 SCT018/// SCT054/// 10/08 Q0993 15.0mph 10°C 8°C 10.4°C
07/01/23 16:50 EGYM 071650Z AUTO 18014KT 9999 FEW013/// SCT025/// BKN053/// 10/08 Q0994 16.1mph 10°C 8°C 10.4°C
07/01/23 16:20 EGYM 071620Z AUTO 18017KT 9999 // BKN013/// BKN057/// 10/08 Q0994 19.6mph 10°C 8°C 10.4°C
07/01/23 15:50 EGYM 071550Z AUTO 18017KT 9999 // OVC011/// 10/09 Q0994 19.6mph 10°C 9°C 10.8°C
07/01/23 15:20 EGYM 071520Z AUTO 18016KT 9999 -RA OVC012/// 10/09 Q0994 -RA 18.4mph 10°C 9°C 10.8°C
07/01/23 14:50 EGYM 071450Z AUTO 17017KT 9999 -DZ OVC015/// 11/08 Q0995 -DZ 19.6mph 11°C 8°C 11.4°C
07/01/23 14:20 EGYM 071420Z AUTO 18018KT 9999 OVC013/// 11/08 Q0995 20.7mph 11°C 8°C 11.4°C
07/01/23 13:50 EGYM 071350Z AUTO 17017KT 9999 // OVC011/// 10/08 Q0995 19.6mph 10°C 8°C 10.4°C
07/01/23 12:50 EGYM 071250Z AUTO 17018KT 9999 -DZ OVC010/// 10/08 Q0996 -DZ 20.7mph 10°C 8°C 10.4°C
07/01/23 12:20 EGYM 071220Z AUTO 17019KT 9999 // OVC011/// 10/08 Q0997 21.9mph 10°C 8°C 10.4°C
07/01/23 11:50 EGYM 071150Z AUTO 17020KT 9999 -RA OVC010/// 09/08 Q0997 -RA 23.0mph 9°C 8°C 9.4°C
07/01/23 11:20 EGYM 071120Z AUTO 17022KT 9000 -RADZ OVC011/// 09/08 Q0998 -RA -DZ 25.3mph 9°C 8°C 9.4°C
07/01/23 10:50 EGYM 071050Z AUTO 17022G32KT 9999 -RA OVC015/// 10/07 Q0998 -RA 25.3mph 36.8mph 10°C 7°C 10.0°C
07/01/23 10:20 EGYM 071020Z AUTO 17026KT 9999 // FEW020/// BKN027/// 10/07 Q0998 29.9mph 10°C 7°C 10.0°C
07/01/23 09:50 EGYM 070950Z AUTO 17025G35KT 9999 -RA BKN027/// BKN059/// 10/07 Q0999 -RA 28.8mph 40.3mph 10°C 7°C 10.0°C
07/01/23 09:20 EGYM 070920Z AUTO 17026G37KT 9999 -RA OVC024/// 11/07 Q0999 -RA 29.9mph 42.6mph 11°C 7°C 11.0°C
07/01/23 08:50 EGYM 070850Z AUTO 18024G36KT 9999 FEW023/// BKN030/// 10/06 Q1000 27.6mph 41.4mph 10°C 6°C 9.6°C
07/01/23 08:20 EGYM 070820Z AUTO 17022G35KT 9999 FEW021/// OVC100/// 11/07 Q1000 25.3mph 40.3mph 11°C 7°C 11.0°C
07/01/23 07:50 EGYM 070750Z AUTO 18023KT 9999 SCT021/// OVC100/// 11/07 Q1000 26.5mph 11°C 7°C 11.0°C
07/01/23 07:20 EGYM 070720Z AUTO 18022G32KT 9999 SCT020/// SCT055/// OVC100/// 11/07 Q1001 25.3mph 36.8mph 11°C 7°C 11.0°C
07/01/23 06:50 EGYM 070650Z AUTO 18021G31KT 9999 OVC021/// 11/07 Q1001 24.2mph 35.7mph 11°C 7°C 11.0°C
07/01/23 06:20 EGYM 070620Z AUTO 18021KT 9999 OVC022/// 11/08 Q1002 24.2mph 11°C 8°C 11.4°C
07/01/23 05:50 EGYM 070550Z AUTO 18018KT 9999 SCT023/// SCT035/// 11/08 Q1002 20.7mph 11°C 8°C 11.4°C
07/01/23 05:20 EGYM 070520Z AUTO 18017KT 9999 OVC023/// 12/08 Q1003 19.6mph 12°C 8°C 12.4°C
07/01/23 04:50 EGYM 070450Z AUTO 18019KT 9999 OVC024/// 12/08 Q1003 21.9mph 12°C 8°C 12.4°C
07/01/23 04:20 EGYM 070420Z AUTO 18018KT 9999 OVC024/// 12/08 Q1004 20.7mph 12°C 8°C 12.4°C
07/01/23 03:50 EGYM 070350Z AUTO 18017KT 9999 FEW024/// BKN031/// BKN160/// 12/09 Q1004 19.6mph 12°C 9°C 12.8°C
07/01/23 03:20 EGYM 070320Z AUTO 18017KT 9999 FEW023/// OVC160/// 11/09 Q1004 19.6mph 11°C 9°C 11.8°C
07/01/23 02:50 EGYM 070250Z AUTO 18019KT 9999 SCT040/// BKN160/// 12/09 Q1005 21.9mph 12°C 9°C 12.8°C